Time;durP1;ratioP1;P1;durP2;ratioP2;P2;SDS_P1;SDS_P2;PMS_P1;PMS_P2;Temp;Humidity;BMP_temperature;BMP_pressure;BME280_temperature;BME280_humidity;BME280_pressure;Samples;Min_cycle;Max_cycle;Signal;HPM_P1;HPM_P2
2023/02/21 02:14:03;;;;;;;19.27;12.90;;;8.90;99.90;;;;;;5076709;28;20523;-69
2023/02/21 02:16:39;;;;;;;17.10;11.20;;;8.90;99.90;;;;;;5076631;28;20493;-69
2023/02/21 02:19:40;;;;;;;16.63;10.40;;;8.90;99.90;;;;;;5076271;28;20445;-68
2023/02/21 02:22:38;;;;;;;19.47;12.47;;;8.90;99.90;;;;;;5076503;28;20492;-68
2023/02/21 02:25:18;;;;;;;16.63;10.13;;;8.90;99.90;;;;;;5076480;28;20511;-68
2023/02/21 02:28:05;;;;;;;19.70;11.10;;;8.90;99.90;;;;;;5076501;28;20452;-68
2023/02/21 02:31:01;;;;;;;23.50;12.77;;;9.00;99.90;;;;;;5077208;28;20456;-69
2023/02/21 02:34:25;;;;;;;15.50;10.40;;;8.90;99.90;;;;;;5076022;28;20449;-68
2023/02/21 02:37:00;;;;;;;18.97;11.70;;;9.00;99.90;;;;;;4980731;28;20452;-69
2023/02/21 02:39:35;;;;;;;21.50;12.20;;;9.00;99.90;;;;;;5076300;28;20438;-69
2023/02/21 02:42:11;;;;;;;19.13;11.33;;;9.00;99.90;;;;;;5076463;28;20490;-69
2023/02/21 02:44:40;;;;;;;19.37;10.97;;;9.00;99.90;;;;;;5076227;28;20525;-68
2023/02/21 02:47:13;;;;;;;19.77;12.03;;;9.00;99.90;;;;;;5076061;28;20486;-68
2023/02/21 02:49:43;;;;;;;15.90;11.20;;;9.00;99.90;;;;;;5075661;28;20529;-69
2023/02/21 02:52:11;;;;;;;16.43;9.90;;;9.10;99.90;;;;;;5075560;28;20450;-68
2023/02/21 02:54:38;;;;;;;17.70;11.20;;;9.10;99.90;;;;;;5075828;28;20450;-68
2023/02/21 02:57:09;;;;;;;20.20;11.50;;;9.00;99.90;;;;;;5075914;28;20458;-68
2023/02/21 02:59:37;;;;;;;14.60;10.67;;;9.00;99.90;;;;;;5076030;28;20446;-68
2023/02/21 03:02:26;;;;;;;15.63;11.40;;;9.10;99.90;;;;;;5075258;28;20583;-69
2023/02/21 03:05:15;;;;;;;16.40;10.63;;;9.10;99.90;;;;;;5075461;28;20452;-67
2023/02/21 03:07:51;;;;;;;16.17;10.70;;;9.10;99.90;;;;;;5075428;28;20465;-70
2023/02/21 03:10:27;;;;;;;14.77;10.53;;;9.10;99.90;;;;;;5075411;28;21051;-69
2023/02/21 03:13:05;;;;;;;14.50;10.40;;;9.20;99.90;;;;;;5075693;28;20537;-67
2023/02/21 03:15:38;;;;;;;16.13;10.10;;;9.20;99.90;;;;;;5075169;28;20435;-68
2023/02/21 03:18:11;;;;;;;17.03;11.43;;;9.20;99.90;;;;;;5075666;28;20533;-69
2023/02/21 03:20:39;;;;;;;15.43;11.23;;;9.20;99.90;;;;;;5075833;28;20522;-68
2023/02/21 03:23:11;;;;;;;13.93;10.37;;;9.30;99.90;;;;;;5075453;28;20540;-67
2023/02/21 03:25:39;;;;;;;14.50;10.13;;;9.30;99.90;;;;;;5075365;28;20533;-68
2023/02/21 03:28:07;;;;;;;14.23;9.10;;;9.30;99.90;;;;;;5075022;28;20465;-69
2023/02/21 03:30:34;;;;;;;14.23;10.07;;;9.30;99.90;;;;;;5074947;28;20464;-68
2023/02/21 03:33:01;;;;;;;13.20;9.77;;;9.40;99.90;;;;;;5075324;28;20571;-67
2023/02/21 03:35:30;;;;;;;17.17;9.67;;;9.40;99.90;;;;;;5074869;28;20460;-68
2023/02/21 03:37:58;;;;;;;15.80;10.40;;;9.40;99.90;;;;;;5075118;28;20458;-68
2023/02/21 03:40:28;;;;;;;14.57;9.70;;;9.40;99.90;;;;;;5074833;28;20454;-68
2023/02/21 03:42:58;;;;;;;12.00;8.10;;;9.40;99.90;;;;;;5075030;28;20549;-68
2023/02/21 03:45:25;;;;;;;15.03;10.07;;;9.40;99.90;;;;;;5075133;28;20556;-65
2023/02/21 03:47:52;;;;;;;12.80;9.57;;;9.40;99.90;;;;;;5074972;28;20866;-65
2023/02/21 03:50:19;;;;;;;14.10;9.20;;;9.40;99.90;;;;;;5074661;28;20458;-65
2023/02/21 03:52:45;;;;;;;11.80;9.07;;;9.40;99.90;;;;;;5074544;28;20488;-66
2023/02/21 03:55:12;;;;;;;14.70;9.37;;;9.40;99.90;;;;;;5074864;28;20464;-64
2023/02/21 03:57:40;;;;;;;15.60;8.93;;;9.40;99.90;;;;;;5074776;28;20541;-65
2023/02/21 04:00:09;;;;;;;13.27;9.97;;;9.40;99.90;;;;;;5074820;28;20454;-66
2023/02/21 04:02:35;;;;;;;14.47;9.23;;;9.40;99.90;;;;;;5075166;28;20481;-65
2023/02/21 04:05:03;;;;;;;13.40;8.70;;;9.40;99.90;;;;;;5074956;28;20459;-63
2023/02/21 04:07:30;;;;;;;14.23;9.50;;;9.40;99.90;;;;;;5074690;28;20516;-65
2023/02/21 04:09:56;;;;;;;13.77;8.93;;;9.40;99.90;;;;;;5074734;28;20464;-65
2023/02/21 04:12:25;;;;;;;12.13;8.57;;;9.50;99.90;;;;;;5074638;28;20450;-65
2023/02/21 04:14:55;;;;;;;11.53;8.70;;;9.50;99.90;;;;;;5074599;28;20790;-65
2023/02/21 04:17:22;;;;;;;10.87;7.93;;;9.50;99.90;;;;;;5074457;28;20488;-66
2023/02/21 04:19:49;;;;;;;12.67;8.90;;;9.60;99.90;;;;;;5078641;28;20458;-66
2023/02/21 04:22:16;;;;;;;11.53;7.70;;;9.60;99.90;;;;;;5078571;28;20477;-64
2023/02/21 04:24:43;;;;;;;11.40;7.90;;;9.70;99.90;;;;;;5078757;28;20454;-66
2023/02/21 04:27:10;;;;;;;11.33;8.40;;;9.70;99.90;;;;;;5078503;28;20453;-67
2023/02/21 04:29:37;;;;;;;10.70;7.10;;;9.70;99.90;;;;;;5078181;28;20454;-66
2023/02/21 04:32:05;;;;;;;11.07;7.47;;;9.80;99.90;;;;;;5078107;28;20464;-66
2023/02/21 04:34:32;;;;;;;10.50;7.40;;;9.80;99.90;;;;;;5078413;28;20560;-66
2023/02/21 04:36:59;;;;;;;10.27;7.60;;;9.80;99.90;;;;;;5077983;28;20911;-66
2023/02/21 04:39:25;;;;;;;11.03;8.30;;;9.80;99.90;;;;;;5078588;28;20550;-67
2023/02/21 04:41:52;;;;;;;10.17;7.40;;;9.80;99.90;;;;;;5077793;28;20482;-67
2023/02/21 04:44:19;;;;;;;11.10;7.63;;;9.80;99.90;;;;;;5078106;28;20458;-66
2023/02/21 04:46:46;;;;;;;10.27;7.80;;;9.80;99.90;;;;;;5077953;28;20457;-65
2023/02/21 04:49:14;;;;;;;10.13;7.00;;;9.80;99.90;;;;;;5078141;28;20462;-64
2023/02/21 04:51:41;;;;;;;11.40;7.37;;;9.80;99.90;;;;;;5077916;28;20464;-66
2023/02/21 04:54:08;;;;;;;9.50;7.00;;;9.80;99.90;;;;;;5078888;28;20960;-66
2023/02/21 04:56:36;;;;;;;11.77;7.67;;;9.80;99.90;;;;;;5077651;28;20461;-66
2023/02/21 04:59:03;;;;;;;11.17;7.27;;;9.80;99.90;;;;;;5077879;28;20481;-65
2023/02/21 05:01:31;;;;;;;10.10;7.00;;;9.70;99.90;;;;;;5077846;28;20500;-65
2023/02/21 05:03:58;;;;;;;9.70;6.80;;;9.50;99.90;;;;;;5077689;28;20948;-66
2023/02/21 05:06:30;;;;;;;10.77;7.93;;;9.40;99.90;;;;;;5077659;28;20859;-66
2023/02/21 05:08:57;;;;;;;13.00;8.73;;;9.40;99.90;;;;;;5077850;28;20528;-67
2023/02/21 05:11:24;;;;;;;13.17;8.40;;;9.30;99.90;;;;;;5077916;28;20450;-67
2023/02/21 05:13:51;;;;;;;15.13;9.20;;;9.30;99.90;;;;;;5077864;28;20454;-67
2023/02/21 05:16:19;;;;;;;16.17;9.43;;;9.30;99.90;;;;;;5077876;28;20485;-68
2023/02/21 05:18:48;;;;;;;16.10;9.80;;;9.30;99.90;;;;;;5077879;28;20450;-69
2023/02/21 05:21:16;;;;;;;16.90;10.23;;;9.30;99.90;;;;;;5077647;28;20454;-67
2023/02/21 05:23:54;;;;;;;19.63;10.83;;;9.20;99.90;;;;;;5077444;28;20468;-67
2023/02/21 05:26:24;;;;;;;17.80;10.50;;;9.20;99.90;;;;;;5078070;28;20474;-67
2023/02/21 05:28:51;;;;;;;19.47;11.03;;;9.20;99.90;;;;;;5076863;28;20455;-68
2023/02/21 05:31:18;;;;;;;17.10;10.63;;;9.20;99.90;;;;;;5083284;28;20902;-67
2023/02/21 05:33:45;;;;;;;18.63;11.03;;;9.20;99.90;;;;;;5097959;28;20453;-67
2023/02/21 05:36:12;;;;;;;17.47;10.47;;;9.10;99.90;;;;;;5098529;28;20498;-69
2023/02/21 05:38:47;;;;;;;12.90;8.87;;;9.20;99.90;;;;;;5097906;28;20488;-66
2023/02/21 05:41:15;;;;;;;15.50;9.70;;;9.10;99.90;;;;;;5097307;28;20560;-66
2023/02/21 05:43:44;;;;;;;16.10;9.50;;;9.20;99.90;;;;;;5097228;28;20552;-66
2023/02/21 05:46:19;;;;;;;15.50;10.60;;;9.20;99.90;;;;;;5098123;28;20468;-66
2023/02/21 05:48:46;;;;;;;17.17;9.37;;;9.10;99.90;;;;;;5097972;28;20445;-66
2023/02/21 05:51:13;;;;;;;15.47;9.27;;;9.20;99.90;;;;;;5097588;28;20457;-67
2023/02/21 05:53:40;;;;;;;14.93;9.87;;;9.10;99.90;;;;;;5097334;28;20449;-67
2023/02/21 05:56:08;;;;;;;17.47;11.27;;;9.10;99.90;;;;;;5083605;28;20484;-67
2023/02/21 05:58:35;;;;;;;15.80;10.00;;;9.10;99.90;;;;;;5076645;28;20544;-66
2023/02/21 06:01:02;;;;;;;15.53;9.60;;;9.10;99.90;;;;;;5076994;28;20468;-65
2023/02/21 06:03:29;;;;;;;15.90;10.07;;;9.10;99.90;;;;;;5076505;28;20482;-67
2023/02/21 06:05:56;;;;;;;18.40;9.40;;;9.10;99.90;;;;;;5076890;28;20454;-66
2023/02/21 06:08:23;;;;;;;17.03;9.73;;;9.10;99.90;;;;;;5076439;28;21001;-66
2023/02/21 06:10:49;;;;;;;16.20;9.57;;;9.10;99.90;;;;;;5076690;28;20469;-66
2023/02/21 06:13:18;;;;;;;16.03;10.10;;;9.20;99.90;;;;;;5076760;28;20450;-68
2023/02/21 06:15:45;;;;;;;16.20;9.97;;;9.10;99.90;;;;;;5076498;28;20926;-66
2023/02/21 06:18:13;;;;;;;16.60;9.60;;;9.00;99.90;;;;;;5076378;28;20919;-66
2023/02/21 06:20:40;;;;;;;17.00;9.70;;;9.10;99.90;;;;;;5076309;28;20458;-67
2023/02/21 06:23:06;;;;;;;16.70;9.37;;;9.10;99.90;;;;;;5076497;28;20566;-67
2023/02/21 06:25:33;;;;;;;13.83;9.40;;;9.10;99.90;;;;;;5076431;28;20462;-68
2023/02/21 06:28:00;;;;;;;18.70;10.10;;;9.10;99.90;;;;;;5076514;28;20777;-67
2023/02/21 06:30:28;;;;;;;15.97;8.83;;;9.10;99.90;;;;;;5076096;28;20465;-67
2023/02/21 06:32:55;;;;;;;16.23;10.00;;;9.10;99.90;;;;;;5076005;28;20915;-67
2023/02/21 06:35:22;;;;;;;17.87;10.30;;;9.10;99.90;;;;;;5076281;28;20454;-67
2023/02/21 06:37:49;;;;;;;19.93;9.70;;;9.10;99.90;;;;;;5076044;28;20454;-67
2023/02/21 06:40:16;;;;;;;18.50;10.67;;;9.10;99.90;;;;;;5075839;28;20549;-66
2023/02/21 06:42:43;;;;;;;16.47;10.03;;;9.20;99.90;;;;;;5075540;28;20516;-67
2023/02/21 06:45:10;;;;;;;15.87;9.93;;;9.10;99.90;;;;;;5076031;28;20465;-67
2023/02/21 06:47:38;;;;;;;18.70;10.10;;;9.10;99.90;;;;;;5076007;28;20465;-68
2023/02/21 06:50:06;;;;;;;16.40;9.90;;;9.20;99.90;;;;;;5075781;28;20464;-66
2023/02/21 06:52:32;;;;;;;18.43;9.93;;;9.20;99.90;;;;;;5075893;28;20450;-67
2023/02/21 06:54:59;;;;;;;16.77;9.43;;;9.10;99.90;;;;;;5075408;28;20926;-67
2023/02/21 06:57:26;;;;;;;16.80;8.90;;;9.20;99.90;;;;;;5075402;28;20541;-67
2023/02/21 06:59:53;;;;;;;15.57;9.67;;;9.20;99.90;;;;;;5075727;28;20454;-67
2023/02/21 07:02:20;;;;;;;17.17;9.13;;;9.20;99.90;;;;;;5075490;28;20504;-68
2023/02/21 07:04:49;;;;;;;18.30;8.67;;;9.10;99.90;;;;;;5075605;28;20472;-68
2023/02/21 07:07:16;;;;;;;14.87;7.93;;;9.10;99.90;;;;;;5076184;28;20439;-68
2023/02/21 07:09:43;;;;;;;15.97;8.60;;;9.20;99.90;;;;;;5075644;28;20568;-68
2023/02/21 07:12:10;;;;;;;16.40;8.57;;;9.20;99.90;;;;;;5075201;28;20948;-68
2023/02/21 07:14:37;;;;;;;16.40;7.53;;;9.20;99.90;;;;;;5075101;28;20545;-68
2023/02/21 07:17:04;;;;;;;13.83;7.40;;;9.20;99.90;;;;;;5075134;28;20454;-67
2023/02/21 07:19:30;;;;;;;20.10;7.90;;;9.20;99.90;;;;;;5075134;28;20454;-68
2023/02/21 07:21:59;;;;;;;11.90;7.03;;;9.20;99.90;;;;;;5074735;28;20549;-68
2023/02/21 07:24:25;;;;;;;12.53;7.27;;;9.20;99.90;;;;;;5075065;28;20545;-68
2023/02/21 07:26:52;;;;;;;11.83;6.97;;;9.20;99.90;;;;;;5075302;28;20454;-68
2023/02/21 07:29:19;;;;;;;9.63;6.30;;;9.20;99.90;;;;;;5075280;28;20569;-67
2023/02/21 07:31:46;;;;;;;12.70;6.90;;;9.10;99.90;;;;;;5074988;28;20465;-67
2023/02/21 07:34:14;;;;;;;12.73;6.43;;;9.10;99.90;;;;;;5074922;28;20464;-69
2023/02/21 07:36:40;;;;;;;19.30;6.20;;;9.20;99.90;;;;;;5075053;28;20465;-68
2023/02/21 07:39:09;;;;;;;9.67;5.70;;;9.20;99.90;;;;;;5074974;28;20464;-67
2023/02/21 07:41:36;;;;;;;10.10;6.10;;;9.10;99.90;;;;;;5074795;28;20855;-67
2023/02/21 07:44:03;;;;;;;8.73;5.63;;;9.10;99.90;;;;;;5074676;28;20970;-68
2023/02/21 07:46:29;;;;;;;6.90;4.30;;;9.00;99.90;;;;;;5075135;28;20553;-68
2023/02/21 07:48:57;;;;;;;8.03;4.63;;;9.00;99.90;;;;;;5074690;28;20464;-68
2023/02/21 07:51:27;;;;;;;7.53;4.20;;;9.10;99.90;;;;;;5074930;28;20454;-67
2023/02/21 07:53:54;;;;;;;6.23;3.93;;;9.10;99.90;;;;;;5074204;28;20454;-67
2023/02/21 07:56:23;;;;;;;5.87;4.13;;;9.10;99.90;;;;;;5074967;28;20553;-67
2023/02/21 07:58:49;;;;;;;4.77;3.40;;;9.10;99.90;;;;;;5074566;28;20462;-67
2023/02/21 08:01:16;;;;;;;4.80;3.70;;;9.20;99.90;;;;;;5074968;28;20458;-68
2023/02/21 08:03:43;;;;;;;4.30;2.77;;;9.20;99.90;;;;;;5074406;28;20478;-67
2023/02/21 08:06:10;;;;;;;3.33;2.80;;;9.20;99.90;;;;;;5074888;28;20465;-67
2023/02/21 08:08:37;;;;;;;4.33;2.77;;;9.20;99.90;;;;;;5074966;28;20458;-67
2023/02/21 08:11:04;;;;;;;3.13;2.73;;;9.20;99.90;;;;;;5074696;28;20464;-68
2023/02/21 08:13:33;;;;;;;4.70;2.43;;;9.20;99.90;;;;;;5075727;28;20529;-68
2023/02/21 08:16:00;;;;;;;4.50;3.10;;;9.20;99.90;;;;;;5074466;28;20462;-67
2023/02/21 08:18:26;;;;;;;2.80;2.30;;;9.20;99.90;;;;;;5074893;28;20454;-67
2023/02/21 08:20:55;;;;;;;3.10;2.40;;;9.30;99.90;;;;;;5074942;28;20748;-67
2023/02/21 08:23:23;;;;;;;2.80;2.10;;;9.30;99.90;;;;;;5074404;28;20984;-68
2023/02/21 08:25:50;;;;;;;3.43;1.93;;;9.40;99.90;;;;;;5074733;28;20480;-66
2023/02/21 08:28:17;;;;;;;3.77;2.07;;;9.40;99.90;;;;;;5074526;28;20453;-67
2023/02/21 08:30:45;;;;;;;2.60;1.97;;;9.40;99.90;;;;;;5074540;28;20795;-67
2023/02/21 08:33:13;;;;;;;2.57;1.70;;;9.40;99.90;;;;;;5074398;28;20777;-66
2023/02/21 08:35:39;;;;;;;2.80;1.70;;;9.50;99.90;;;;;;5074375;28;20553;-67
2023/02/21 08:38:07;;;;;;;2.50;1.90;;;9.50;99.90;;;;;;5073961;28;20548;-66
2023/02/21 08:40:34;;;;;;;4.80;2.00;;;9.60;99.90;;;;;;5074633;28;20469;-67
2023/02/21 08:43:01;;;;;;;2.67;1.63;;;9.60;99.90;;;;;;5074299;28;20959;-66
2023/02/21 08:45:29;;;;;;;2.57;1.80;;;9.60;99.90;;;;;;5074476;28;20579;-66
2023/02/21 08:47:58;;;;;;;2.03;1.40;;;9.70;99.90;;;;;;5074737;28;20481;-65
2023/02/21 08:50:27;;;;;;;2.13;1.63;;;9.70;99.90;;;;;;5074314;28;20454;-66
2023/02/21 08:52:54;;;;;;;1.90;1.40;;;9.70;99.90;;;;;;5074369;28;20454;-69
2023/02/21 08:55:22;;;;;;;4.40;1.70;;;9.70;99.90;;;;;;5074410;28;20454;-69
2023/02/21 08:57:50;;;;;;;3.57;1.40;;;9.70;99.90;;;;;;5074255;28;20454;-69
2023/02/21 09:00:18;;;;;;;1.60;1.30;;;9.80;99.90;;;;;;5074315;28;20462;-69
2023/02/21 09:02:45;;;;;;;1.67;1.30;;;9.80;99.90;;;;;;5074352;28;20478;-69
2023/02/21 09:05:15;;;;;;;2.00;1.40;;;9.80;99.90;;;;;;5077283;28;20476;-68
2023/02/21 09:07:42;;;;;;;1.90;1.37;;;9.80;99.90;;;;;;5078277;28;20442;-70
2023/02/21 09:10:10;;;;;;;4.70;3.17;;;9.80;99.90;;;;;;5078133;28;20937;-70
2023/02/21 09:12:37;;;;;;;5.53;1.60;;;9.90;99.90;;;;;;5086080;28;20504;-69
2023/02/21 09:15:04;;;;;;;2.77;1.60;;;9.90;99.90;;;;;;5098078;28;20521;-69
2023/02/21 09:17:32;;;;;;;2.50;1.20;;;9.80;99.90;;;;;;5098100;28;20453;-69
2023/02/21 09:20:00;;;;;;;2.00;1.23;;;9.80;99.90;;;;;;5097818;28;20600;-69
2023/02/21 09:22:30;;;;;;;3.40;1.60;;;9.80;99.90;;;;;;5096657;28;20948;-69
2023/02/21 09:24:57;;;;;;;2.37;1.23;;;9.80;99.90;;;;;;5098260;28;20784;-70
2023/02/21 09:27:35;;;;;;;4.47;1.30;;;9.80;99.90;;;;;;5097794;28;20777;-70
2023/02/21 09:30:03;;;;;;;2.90;1.37;;;9.90;99.90;;;;;;5097818;28;20522;-70
2023/02/21 09:32:30;;;;;;;3.63;1.20;;;9.80;99.90;;;;;;5090197;28;20935;-68
2023/02/21 09:34:57;;;;;;;4.47;1.60;;;9.80;99.90;;;;;;5077356;28;20454;-69
2023/02/21 09:37:24;;;;;;;6.07;1.60;;;9.90;99.90;;;;;;5077595;28;20454;-69
2023/02/21 09:39:53;;;;;;;3.27;1.63;;;9.90;99.90;;;;;;5077249;28;20755;-69
2023/02/21 09:42:24;;;;;;;8.40;1.50;;;9.90;99.90;;;;;;5076947;28;20482;-69
2023/02/21 09:44:51;;;;;;;5.13;1.50;;;10.00;99.90;;;;;;5076414;28;20469;-70
2023/02/21 09:47:27;;;;;;;5.67;1.70;;;9.90;99.90;;;;;;5076707;28;20546;-69
2023/02/21 09:50:00;;;;;;;2.60;1.60;;;9.90;99.90;;;;;;5077342;28;20449;-69
2023/02/21 09:52:32;;;;;;;7.27;1.50;;;10.00;99.90;;;;;;5077945;28;20456;-69
2023/02/21 09:55:07;;;;;;;3.07;1.40;;;10.00;99.90;;;;;;5076959;28;20563;-69
2023/02/21 09:57:34;;;;;;;6.60;1.83;;;10.10;99.90;;;;;;5077082;28;20540;-69
2023/02/21 10:00:01;;;;;;;2.87;1.37;;;10.00;1.00;;;;;;5076772;28;20784;-69
2023/02/21 10:02:47;;;;;;;4.40;1.77;;;10.10;99.90;;;;;;5076930;28;20468;-68
2023/02/21 10:05:22;;;;;;;6.97;1.40;;;10.10;1.00;;;;;;5077554;28;20427;-68
2023/02/21 10:07:58;;;;;;;3.00;1.50;;;10.20;1.00;;;;;;5077098;28;20437;-70
2023/02/21 10:10:32;;;;;;;4.97;1.60;;;10.30;1.00;;;;;;5076656;28;20438;-70
2023/02/21 10:13:10;;;;;;;3.57;1.50;;;10.30;99.90;;;;;;5076397;28;20435;-70
2023/02/21 10:15:45;;;;;;;6.03;1.87;;;10.20;99.90;;;;;;5075986;28;20438;-68
2023/02/21 10:18:25;;;;;;;8.50;2.33;;;10.20;1.00;;;;;;5077204;28;20448;-68
2023/02/21 10:20:56;;;;;;;7.00;1.83;;;10.30;1.00;;;;;;5076575;28;20440;-70
2023/02/21 10:23:28;;;;;;;6.93;1.77;;;10.40;99.90;;;;;;5076859;28;20474;-70
2023/02/21 10:26:01;;;;;;;5.30;2.23;;;10.30;89.40;;;;;;5076427;28;20442;-68
2023/02/21 10:28:28;;;;;;;8.53;2.43;;;10.30;99.90;;;;;;5076324;28;20453;-69
2023/02/21 10:30:58;;;;;;;6.27;2.40;;;10.30;99.90;;;;;;5076443;28;20764;-69
2023/02/21 10:33:26;;;;;;;4.13;1.47;;;10.30;1.00;;;;;;5076265;28;20775;-69
2023/02/21 10:35:53;;;;;;;8.80;2.17;;;10.30;58.50;;;;;;5076332;28;20847;-70
2023/02/21 10:38:24;;;;;;;7.50;1.60;;;10.30;99.90;;;;;;5075869;28;20938;-69
2023/02/21 10:40:54;;;;;;;10.23;1.93;;;10.30;99.90;;;;;;5076110;28;20519;-69
2023/02/21 10:43:28;;;;;;;8.03;1.90;;;10.40;99.90;;;;;;5075586;28;20500;-69
2023/02/21 10:45:59;;;;;;;4.80;1.53;;;10.40;99.90;;;;;;5076035;28;20453;-69
2023/02/21 10:48:30;;;;;;;6.00;2.10;;;10.40;99.90;;;;;;5075704;28;20454;-69
2023/02/21 10:51:07;;;;;;;6.33;1.43;;;10.40;99.90;;;;;;5077096;28;20529;-69
2023/02/21 10:53:36;;;;;;;6.40;1.70;;;10.50;99.90;;;;;;5096318;28;20445;-69
2023/02/21 10:56:28;;;;;;;3.73;1.70;;;10.50;99.90;;;;;;5096346;28;20531;-69
2023/02/21 10:59:00;;;;;;;5.67;1.40;;;10.40;99.90;;;;;;5095691;28;20457;-69
2023/02/21 11:01:38;;;;;;;6.33;2.70;;;10.50;99.90;;;;;;5095951;28;20460;-69
2023/02/21 11:04:07;;;;;;;7.40;1.97;;;10.50;1.00;;;;;;5095638;28;20476;-69
2023/02/21 11:06:36;;;;;;;6.93;1.80;;;10.60;1.00;;;;;;5095199;28;20457;-69
2023/02/21 11:09:25;;;;;;;9.20;1.90;;;10.60;99.90;;;;;;5095487;28;20781;-69
2023/02/21 11:12:01;;;;;;;4.03;1.33;;;10.60;1.00;;;;;;5095311;28;20438;-69
2023/02/21 11:14:30;;;;;;;8.67;2.13;;;10.50;1.00;;;;;;5095980;28;20770;-69
2023/02/21 11:17:22;;;;;;;6.50;1.40;;;10.60;1.00;;;;;;5095653;28;20463;-69
2023/02/21 11:19:51;;;;;;;6.37;1.43;;;10.60;99.90;;;;;;5095071;28;20438;-69
2023/02/21 11:22:21;;;;;;;6.63;1.80;;;10.50;99.90;;;;;;5095634;28;20460;-69
2023/02/21 11:24:59;;;;;;;11.20;2.23;;;10.40;99.90;;;;;;5095497;28;20556;-69
2023/02/21 11:27:27;;;;;;;5.20;1.43;;;10.50;99.90;;;;;;5095484;28;20769;-69
2023/02/21 11:29:56;;;;;;;8.53;2.13;;;10.50;99.90;;;;;;5095199;28;20454;-69
2023/02/21 11:32:27;;;;;;;6.47;1.60;;;10.60;99.90;;;;;;5095310;28;20460;-69
2023/02/21 11:35:06;;;;;;;5.57;1.70;;;10.70;1.00;;;;;;5095299;28;20540;-70
2023/02/21 11:37:34;;;;;;;4.90;1.67;;;10.80;99.90;;;;;;5095158;28;20882;-69
2023/02/21 11:40:04;;;;;;;9.93;2.00;;;11.00;1.00;;;;;;5095046;28;20453;-69
2023/02/21 11:42:33;;;;;;;7.87;1.90;;;10.90;1.00;;;;;;5095154;28;20469;-69
2023/02/21 11:45:24;;;;;;;4.97;1.50;;;11.00;1.00;;;;;;5094660;28;20481;-70
2023/02/21 11:47:59;;;;;;;6.53;2.20;;;10.80;1.00;;;;;;5094869;28;20529;-68
2023/02/21 11:50:27;;;;;;;6.63;1.40;;;10.90;1.00;;;;;;5094984;28;20520;-68
2023/02/21 11:53:00;;;;;;;9.87;2.87;;;11.10;1.00;;;;;;5094799;28;20935;-69
2023/02/21 11:55:28;;;;;;;13.50;2.37;;;11.00;1.00;;;;;;5094799;28;20445;-69
2023/02/21 11:58:05;;;;;;;6.93;1.77;;;10.90;1.00;;;;;;5094908;28;20958;-70
2023/02/21 12:00:41;;;;;;;7.30;2.17;;;10.90;1.00;;;;;;5094875;28;20451;-69
2023/02/21 12:03:30;;;;;;;8.43;1.80;;;11.00;99.90;;;;;;5095002;28;20437;-70
2023/02/21 12:06:04;;;;;;;12.73;3.00;;;10.90;1.00;;;;;;5094699;28;20430;-69
2023/02/21 12:08:47;;;;;;;9.97;2.13;;;11.10;1.00;;;;;;5094356;28;20529;-69
2023/02/21 12:11:40;;;;;;;10.47;2.90;;;11.10;99.90;;;;;;5095012;28;20434;-70
2023/02/21 12:14:19;;;;;;;6.63;2.37;;;11.10;99.90;;;;;;5094755;28;20434;-69
2023/02/21 12:16:59;;;;;;;5.17;1.70;;;11.20;99.90;;;;;;5094813;28;20559;-68
2023/02/21 12:19:38;;;;;;;8.70;2.10;;;11.20;99.90;;;;;;5094781;28;20433;-70
2023/02/21 12:22:15;;;;;;;10.83;2.70;;;11.40;99.90;;;;;;5094814;28;20767;-69
2023/02/21 12:24:54;;;;;;;11.60;2.47;;;11.60;99.90;;;;;;5094840;28;20464;-69
2023/02/21 12:27:30;;;;;;;17.33;2.20;;;11.80;99.90;;;;;;5094597;28;20438;-69
2023/02/21 12:30:17;;;;;;;7.90;2.57;;;11.70;99.90;;;;;;5094406;28;20426;-70
2023/02/21 12:32:51;;;;;;;9.33;2.10;;;11.60;99.90;;;;;;5094441;28;20437;-69
2023/02/21 12:35:51;;;;;;;12.17;2.60;;;12.30;99.90;;;;;;5094624;28;20882;-69
2023/02/21 12:38:29;;;;;;;11.57;2.30;;;12.10;99.90;;;;;;5095040;28;20438;-70
2023/02/21 12:41:04;;;;;;;14.60;3.00;;;11.80;99.90;;;;;;5098261;28;20442;-69
2023/02/21 12:43:48;;;;;;;8.60;2.67;;;11.50;99.90;;;;;;5098068;28;20491;-69
2023/02/21 12:46:24;;;;;;;10.77;2.43;;;11.40;99.90;;;;;;5098164;28;20442;-69
2023/02/21 12:48:59;;;;;;;10.40;2.33;;;11.40;99.90;;;;;;5098203;28;20945;-69
2023/02/21 12:51:31;;;;;;;9.93;2.20;;;11.30;99.90;;;;;;5098385;28;20524;-69
2023/02/21 12:54:04;;;;;;;13.00;2.50;;;11.30;99.90;;;;;;5098771;28;20434;-69
2023/02/21 12:56:39;;;;;;;11.10;2.60;;;11.20;99.90;;;;;;5098134;28;20540;-69
2023/02/21 12:59:13;;;;;;;10.87;2.00;;;11.20;99.90;;;;;;5098129;28;20455;-70
2023/02/21 13:01:43;;;;;;;11.03;2.47;;;11.20;99.90;;;;;;5098074;28;20441;-70
2023/02/21 13:04:22;;;;;;;9.27;2.10;;;11.20;99.90;;;;;;5098433;28;20465;-68
2023/02/21 13:06:53;;;;;;;12.97;2.90;;;10.90;99.90;;;;;;5098296;28;20528;-68
2023/02/21 13:09:32;;;;;;;8.03;2.43;;;10.90;99.90;;;;;;5098027;28;20460;-69
2023/02/21 13:12:05;;;;;;;9.70;3.30;;;10.90;99.90;;;;;;5097701;28;20441;-69
2023/02/21 13:14:36;;;;;;;5.13;2.27;;;10.90;99.90;;;;;;5097892;28;20452;-69
2023/02/21 13:17:03;;;;;;;9.70;2.53;;;11.00;99.90;;;;;;5097443;28;20437;-69
2023/02/21 13:19:45;;;;;;;16.13;2.40;;;11.00;99.90;;;;;;5097722;28;20453;-69
2023/02/21 13:25:46;;;;;;;8.53;2.27;;;10.90;99.90;;;;;;5098042;28;20774;-68
2023/02/21 13:28:18;;;;;;;10.00;2.10;;;11.00;99.90;;;;;;5097370;28;20469;-69
2023/02/21 13:30:48;;;;;;;12.93;2.80;;;11.00;99.90;;;;;;5097612;28;20441;-69
2023/02/21 13:33:30;;;;;;;7.80;2.17;;;10.90;99.90;;;;;;5097666;28;20529;-69
2023/02/21 13:36:00;;;;;;;9.93;2.47;;;11.00;99.90;;;;;;5097532;28;20438;-68
2023/02/21 13:38:29;;;;;;;9.60;2.40;;;11.10;99.90;;;;;;5097161;28;20453;-69
2023/02/21 13:41:08;;;;;;;10.30;3.53;;;11.10;99.90;;;;;;5097413;28;20835;-70
2023/02/21 13:43:45;;;;;;;8.97;2.20;;;11.10;99.90;;;;;;5096957;28;20545;-69
2023/02/21 13:46:57;;;;;;;11.57;2.27;;;11.10;99.90;;;;;;5097367;28;20505;-71
2023/02/21 13:49:49;;;;;;;9.47;3.00;;;11.00;99.90;;;;;;5097221;28;20528;-71
2023/02/21 13:52:57;;;;;;;8.70;2.40;;;11.00;99.90;;;;;;5097393;28;20446;-71
2023/02/21 13:55:30;;;;;;;13.07;3.07;;;11.00;99.90;;;;;;5097347;28;20449;-69
2023/02/21 13:58:43;;;;;;;11.23;2.43;;;11.00;99.90;;;;;;5096939;28;20471;-69
2023/02/21 14:01:44;;;;;;;7.10;2.20;;;11.20;99.90;;;;;;5096917;28;20448;-69
2023/02/21 14:05:00;;;;;;;6.90;2.03;;;11.10;99.90;;;;;;5093676;28;20564;-68
2023/02/21 14:08:02;;;;;;;8.10;2.40;;;11.10;99.90;;;;;;5096638;28;20886;-68
2023/02/21 14:10:41;;;;;;;5.90;1.93;;;11.10;99.90;;;;;;5096862;28;20540;-69
2023/02/21 14:13:21;;;;;;;11.93;2.33;;;11.10;99.90;;;;;;5096702;28;20438;-68
2023/02/21 14:15:50;;;;;;;13.37;3.73;;;11.10;99.90;;;;;;5097425;28;20469;-67
2023/02/21 14:18:22;;;;;;;7.17;2.17;;;11.00;99.90;;;;;;5096607;28;20922;-69
2023/02/21 14:20:51;;;;;;;8.30;2.70;;;10.90;99.90;;;;;;5096568;28;20525;-68
2023/02/21 14:23:22;;;;;;;13.07;2.23;;;10.90;99.90;;;;;;5096096;28;20457;-70
2023/02/21 14:25:58;;;;;;;14.97;4.70;;;10.80;99.90;;;;;;5096769;28;20462;-69
2023/02/21 14:29:04;;;;;;;9.23;3.37;;;10.90;99.90;;;;;;5096088;28;20503;-69
2023/02/21 14:31:51;;;;;;;10.30;2.37;;;10.90;99.90;;;;;;5062496;28;20489;-69
2023/02/21 14:34:24;;;;;;;11.80;2.40;;;10.90;99.90;;;;;;5096294;28;20438;-68
2023/02/21 14:36:52;;;;;;;8.63;3.50;;;10.80;99.90;;;;;;5096586;28;20452;-69
2023/02/21 14:39:22;;;;;;;11.23;2.77;;;10.80;99.90;;;;;;5096026;28;20457;-68
2023/02/21 14:42:09;;;;;;;11.27;2.23;;;10.80;99.90;;;;;;5096239;28;20535;-69
2023/02/21 14:44:42;;;;;;;9.00;2.30;;;10.80;99.90;;;;;;5096282;28;20465;-68
2023/02/21 14:47:29;;;;;;;13.33;2.50;;;10.70;99.90;;;;;;5097136;28;20767;-68
2023/02/21 14:50:11;;;;;;;10.33;3.20;;;10.70;99.90;;;;;;5096286;28;20446;-69
2023/02/21 14:53:18;;;;;;;10.70;2.27;;;10.70;99.90;;;;;;5096309;28;20473;-68
2023/02/21 14:56:03;;;;;;;6.30;2.27;;;10.70;99.90;;;;;;5095990;28;20440;-69
2023/02/21 14:59:05;;;;;;;8.70;1.80;;;10.60;99.90;;;;;;5096180;28;20438;-69
2023/02/21 15:01:49;;;;;;;11.57;2.97;;;10.60;99.90;;;;;;5095619;28;20473;-69
2023/02/21 15:04:20;;;;;;;9.93;2.13;;;10.50;99.90;;;;;;5095560;28;20465;-68
2023/02/21 15:06:59;;;;;;;10.67;2.23;;;10.50;99.90;;;;;;5095928;28;20448;-69
2023/02/21 15:09:26;;;;;;;8.40;2.80;;;10.50;99.90;;;;;;5096606;28;20437;-69
2023/02/21 15:11:56;;;;;;;22.73;3.83;;;10.50;99.90;;;;;;5096273;28;20464;-68
2023/02/21 15:14:25;;;;;;;9.60;2.63;;;10.50;99.90;;;;;;5095572;28;20966;-69
2023/02/21 15:16:56;;;;;;;14.97;3.17;;;10.50;99.90;;;;;;5095986;28;20464;-68
2023/02/21 15:19:29;;;;;;;7.80;2.40;;;10.60;99.90;;;;;;5095685;28;20472;-69
2023/02/21 15:22:16;;;;;;;8.40;2.87;;;10.60;99.90;;;;;;5095575;28;20441;-69
2023/02/21 15:25:00;;;;;;;17.57;3.40;;;10.60;99.90;;;;;;5095579;28;20507;-69
2023/02/21 15:27:28;;;;;;;8.03;2.53;;;10.70;99.90;;;;;;5095563;28;20445;-69
2023/02/21 15:30:07;;;;;;;15.73;3.60;;;10.60;99.90;;;;;;5096001;28;20453;-68